Time;durP1;ratioP1;P1;durP2;ratioP2;P2;SDS_P1;SDS_P2;PMS_P1;PMS_P2;Temp;Humidity;BMP_temperature;BMP_pressure;BME280_temperature;BME280_humidity;BME280_pressure;Samples;Min_cycle;Max_cycle;Signal;HPM_P1;HPM_P2
2022/12/21 00:02:03;;;;;;;31.83;19.67;;;9.90;99.90;;;;;;5056690;28;20477;-64
2022/12/21 00:04:29;;;;;;;26.50;16.53;;;9.90;99.90;;;;;;5056500;28;20033;-64
2022/12/21 00:06:54;;;;;;;28.23;18.77;;;9.80;99.90;;;;;;5056227;28;20040;-63
2022/12/21 00:09:20;;;;;;;24.30;15.40;;;9.90;99.90;;;;;;5056494;28;20519;-65
2022/12/21 00:11:46;;;;;;;27.37;16.97;;;9.90;99.90;;;;;;5056365;28;20072;-63
2022/12/21 00:14:12;;;;;;;28.83;17.73;;;9.90;99.90;;;;;;5056451;28;20064;-63
2022/12/21 00:16:39;;;;;;;26.17;16.53;;;9.90;99.90;;;;;;5054845;28;20036;-63
2022/12/21 00:19:05;;;;;;;25.17;16.60;;;9.90;99.90;;;;;;5056150;28;20024;-63
2022/12/21 00:21:34;;;;;;;29.47;17.73;;;9.80;99.90;;;;;;5056283;28;20104;-63
2022/12/21 00:24:00;;;;;;;27.58;17.52;;;9.80;99.90;;;;;;5056429;28;20029;-63
2022/12/21 00:26:32;;;;;;;26.70;16.87;;;9.80;99.90;;;;;;5056109;28;20370;-63
2022/12/21 00:28:58;;;;;;;27.50;17.70;;;9.80;99.90;;;;;;5056060;28;20025;-63
2022/12/21 00:31:33;;;;;;;29.00;18.17;;;9.80;99.90;;;;;;5051999;28;20029;-63
2022/12/21 00:33:59;;;;;;;28.67;17.27;;;9.80;99.90;;;;;;5053325;28;20025;-63
2022/12/21 00:36:28;;;;;;;28.50;18.53;;;9.80;99.90;;;;;;5051437;28;20032;-63
2022/12/21 00:38:55;;;;;;;29.48;17.70;;;9.80;99.90;;;;;;5052630;28;20033;-63
2022/12/21 00:41:24;;;;;;;31.70;17.43;;;9.80;99.90;;;;;;5053214;28;20037;-63
2022/12/21 00:43:54;;;;;;;30.43;18.73;;;9.80;99.90;;;;;;5052978;28;20055;-63
2022/12/21 00:46:23;;;;;;;30.50;18.00;;;9.80;99.90;;;;;;5052733;28;20473;-64
2022/12/21 00:48:49;;;;;;;34.20;18.90;;;9.80;99.90;;;;;;5052513;28;20029;-63
2022/12/21 00:51:18;;;;;;;31.27;18.37;;;9.80;99.90;;;;;;5052749;28;20029;-63
2022/12/21 00:53:44;;;;;;;32.45;18.15;;;9.80;99.90;;;;;;5051408;28;20116;-64
2022/12/21 00:56:11;;;;;;;34.07;18.30;;;9.80;99.90;;;;;;5051756;28;20383;-64
2022/12/21 00:58:38;;;;;;;34.70;18.43;;;9.80;99.90;;;;;;5052179;28;20033;-64
2022/12/21 01:01:07;;;;;;;32.23;19.10;;;9.80;99.90;;;;;;5052917;28;20104;-63
2022/12/21 01:03:33;;;;;;;33.00;18.77;;;9.80;99.90;;;;;;5052692;28;20029;-64
2022/12/21 01:05:59;;;;;;;34.93;19.73;;;9.80;99.90;;;;;;5051181;28;20025;-63
2022/12/21 01:08:25;;;;;;;35.13;19.53;;;9.70;99.90;;;;;;5052178;28;20158;-64
2022/12/21 01:11:02;;;;;;;32.83;18.83;;;9.70;99.90;;;;;;5052317;28;20120;-64
2022/12/21 01:13:30;;;;;;;35.40;19.67;;;9.70;99.90;;;;;;5052498;28;20401;-64
2022/12/21 01:15:56;;;;;;;31.87;18.83;;;9.70;99.90;;;;;;5050979;28;20092;-64
2022/12/21 01:18:22;;;;;;;36.00;20.53;;;9.70;99.90;;;;;;5052039;28;20151;-64
2022/12/21 01:20:50;;;;;;;38.57;20.47;;;9.70;99.90;;;;;;5051872;28;20148;-63
2022/12/21 01:23:18;;;;;;;34.60;19.88;;;9.70;99.90;;;;;;5050970;28;20086;-63
2022/12/21 01:25:45;;;;;;;39.83;20.00;;;9.70;99.90;;;;;;5050919;28;20025;-64
2022/12/21 01:28:12;;;;;;;40.27;21.10;;;9.70;99.90;;;;;;5051845;28;20040;-63
2022/12/21 01:30:38;;;;;;;46.40;22.30;;;9.70;99.90;;;;;;5051796;28;20455;-63
2022/12/21 01:33:06;;;;;;;41.67;20.13;;;9.70;99.90;;;;;;5050694;28;20052;-63
2022/12/21 01:35:31;;;;;;;40.63;20.17;;;9.70;99.90;;;;;;5051926;28;20033;-64
2022/12/21 01:37:59;;;;;;;39.40;20.83;;;9.70;99.90;;;;;;5051619;28;20036;-63
2022/12/21 01:40:29;;;;;;;46.10;21.87;;;9.70;99.90;;;;;;5051756;28;20026;-63
2022/12/21 01:42:55;;;;;;;48.10;21.80;;;9.70;99.90;;;;;;5050741;28;20052;-64
2022/12/21 01:45:29;;;;;;;46.73;20.83;;;9.70;99.90;;;;;;5050533;28;20064;-63
2022/12/21 01:48:05;;;;;;;47.90;22.03;;;9.70;99.90;;;;;;5051538;28;20033;-64
2022/12/21 01:50:48;;;;;;;45.30;23.00;;;9.70;99.90;;;;;;5051463;28;20120;-64
2022/12/21 01:53:27;;;;;;;46.53;22.37;;;9.70;99.90;;;;;;5050359;28;20060;-64
2022/12/21 01:55:55;;;;;;;46.78;22.05;;;9.70;99.90;;;;;;5052167;28;20029;-63
2022/12/21 01:58:25;;;;;;;53.43;23.10;;;9.70;99.90;;;;;;5049954;28;20691;-64
2022/12/21 02:00:52;;;;;;;56.20;23.27;;;9.60;99.90;;;;;;5049940;28;20052;-63
2022/12/21 02:03:21;;;;;;;46.63;21.87;;;9.60;99.90;;;;;;5050194;28;20037;-63
2022/12/21 02:06:01;;;;;;;46.17;22.25;;;9.60;99.90;;;;;;5051407;28;20037;-63
2022/12/21 02:08:27;;;;;;;47.33;22.37;;;9.60;99.90;;;;;;5049747;28;20033;-64
2022/12/21 02:10:54;;;;;;;53.93;23.37;;;9.60;99.90;;;;;;5049848;28;20028;-63
2022/12/21 02:13:21;;;;;;;54.83;22.53;;;9.60;99.90;;;;;;5051255;28;20485;-63
2022/12/21 02:16:15;;;;;;;53.37;23.83;;;9.60;99.90;;;;;;5051241;28;20041;-63
2022/12/21 02:18:57;;;;;;;54.57;23.80;;;9.60;99.90;;;;;;5050590;28;20029;-64
2022/12/21 02:21:28;;;;;;;52.80;23.93;;;9.60;99.90;;;;;;5051201;28;20119;-63
2022/12/21 02:24:08;;;;;;;52.40;22.37;;;9.60;99.90;;;;;;5051053;28;20025;-64
2022/12/21 02:27:09;;;;;;;56.17;22.80;;;9.60;99.90;;;;;;5049550;28;20020;-64
2022/12/21 02:29:59;;;;;;;57.80;23.37;;;9.60;99.90;;;;;;5050757;28;20033;-63
2022/12/21 02:32:52;;;;;;;56.40;23.77;;;9.60;99.90;;;;;;5050885;28;20029;-64
2022/12/21 02:35:34;;;;;;;57.47;23.50;;;9.60;99.90;;;;;;5049573;28;20029;-64
2022/12/21 02:38:17;;;;;;;51.20;24.07;;;9.60;99.90;;;;;;5061861;22;20045;-51
2022/12/21 02:41:28;;;;;;;58.37;24.20;;;9.60;99.90;;;;;;5048791;28;20466;-54
2022/12/21 02:44:14;;;;;;;60.50;23.53;;;9.60;99.90;;;;;;5045184;28;20559;-54
2022/12/21 02:46:46;;;;;;;51.77;22.57;;;9.60;99.90;;;;;;5050582;28;20044;-53
2022/12/21 02:49:35;;;;;;;52.43;22.47;;;9.60;99.90;;;;;;5049069;28;20029;-54
2022/12/21 02:52:41;;;;;;;54.90;23.33;;;9.60;99.90;;;;;;5049183;28;20478;-53
2022/12/21 02:55:11;;;;;;;57.37;23.40;;;9.60;99.90;;;;;;5049230;28;20025;-54
2022/12/21 02:57:42;;;;;;;49.57;21.70;;;9.60;99.90;;;;;;5050475;28;20029;-53
2022/12/21 03:00:15;;;;;;;53.23;23.30;;;9.60;99.90;;;;;;5049025;28;20029;-53
2022/12/21 03:06:35;;;;;;;51.03;22.17;;;9.60;99.90;;;;;;5049046;28;20086;-54
2022/12/21 03:09:29;;;;;;;54.93;24.27;;;9.60;99.90;;;;;;5048822;28;20499;-54
2022/12/21 03:12:43;;;;;;;46.17;21.90;;;9.60;99.90;;;;;;5048952;28;20502;-51
2022/12/21 03:15:37;;;;;;;54.60;22.70;;;9.60;99.90;;;;;;5036001;28;20070;-53
2022/12/21 03:18:18;;;;;;;52.63;23.43;;;9.60;99.90;;;;;;5050176;28;20053;-50
2022/12/21 03:21:02;;;;;;;53.93;22.67;;;9.60;99.90;;;;;;5048708;28;20095;-52
2022/12/21 03:23:46;;;;;;;57.50;22.83;;;9.60;99.90;;;;;;5048981;28;20036;-52
2022/12/21 03:26:27;;;;;;;55.73;24.20;;;9.60;99.90;;;;;;5050385;28;20394;-50
2022/12/21 03:28:54;;;;;;;52.40;23.07;;;9.50;99.90;;;;;;5049930;28;20171;-53
2022/12/21 03:31:25;;;;;;;70.90;25.03;;;9.50;99.90;;;;;;5050168;28;20060;-54
2022/12/21 03:34:00;;;;;;;54.03;23.50;;;9.50;99.90;;;;;;5050191;28;20029;-54
2022/12/21 03:36:37;;;;;;;54.63;23.30;;;9.50;99.90;;;;;;5049961;28;20079;-52
2022/12/21 03:39:13;;;;;;;57.13;23.67;;;9.50;99.90;;;;;;5049838;28;20033;-54
2022/12/21 03:41:57;;;;;;;52.63;22.00;;;9.50;99.90;;;;;;5050146;28;20040;-54
2022/12/21 03:44:31;;;;;;;56.77;22.50;;;9.50;99.90;;;;;;5050179;28;20033;-51
2022/12/21 03:47:01;;;;;;;58.80;23.23;;;9.50;99.90;;;;;;5049913;28;20123;-54
2022/12/21 03:49:38;;;;;;;58.23;23.80;;;9.50;99.90;;;;;;5049834;28;20052;-53
2022/12/21 03:52:12;;;;;;;58.90;24.53;;;9.50;99.90;;;;;;5050108;28;20037;-54
2022/12/21 03:54:47;;;;;;;60.30;23.53;;;9.50;99.90;;;;;;5050133;28;20037;-52
2022/12/21 03:57:14;;;;;;;60.30;24.33;;;9.50;99.90;;;;;;5050152;28;20121;-50
2022/12/21 03:59:47;;;;;;;61.00;24.40;;;9.50;99.90;;;;;;5049817;28;20115;-55
2022/12/21 04:02:23;;;;;;;67.43;25.77;;;9.50;99.90;;;;;;5050119;28;20449;-54
2022/12/21 04:05:02;;;;;;;62.53;24.67;;;9.50;99.90;;;;;;5050062;28;20033;-53
2022/12/21 04:07:30;;;;;;;71.63;26.20;;;9.40;99.90;;;;;;5053044;28;20037;-53
2022/12/21 04:10:02;;;;;;;65.30;24.40;;;9.40;99.90;;;;;;5053402;28;20486;-51
2022/12/21 04:12:39;;;;;;;66.90;25.27;;;9.40;99.90;;;;;;5053930;28;20029;-54
2022/12/21 04:15:12;;;;;;;69.63;24.93;;;9.40;99.90;;;;;;5053603;28;20033;-56
2022/12/21 04:17:39;;;;;;;80.07;26.10;;;9.40;99.90;;;;;;5053161;28;20036;-52
2022/12/21 04:20:08;;;;;;;77.10;27.20;;;9.40;99.90;;;;;;5053717;28;20029;-55
2022/12/21 04:28:31;;;;;;;66.20;25.73;;;9.40;99.90;;;;;;5053024;28;20037;-54
2022/12/21 04:30:58;;;;;;;64.13;25.30;;;9.40;99.90;;;;;;5053412;28;20663;-54
2022/12/21 04:33:25;;;;;;;68.67;26.27;;;9.40;99.90;;;;;;5053272;28;20021;-53
2022/12/21 04:38:38;;;;;;;66.80;24.67;;;9.40;99.90;;;;;;5052438;28;20087;-50
2022/12/21 04:41:05;;;;;;;69.18;25.02;;;9.40;99.90;;;;;;5053008;28;20025;-54
2022/12/21 04:43:30;;;;;;;69.60;25.50;;;9.40;99.90;;;;;;5053014;28;20063;-54
2022/12/21 04:46:05;;;;;;;73.10;25.77;;;9.40;99.90;;;;;;5053025;28;20494;-55
2022/12/21 04:48:30;;;;;;;64.33;23.80;;;9.40;99.90;;;;;;5052887;28;20115;-54
2022/12/21 04:51:01;;;;;;;60.73;22.93;;;9.40;99.90;;;;;;5052810;28;20120;-53
2022/12/21 04:53:27;;;;;;;67.07;24.47;;;9.40;99.90;;;;;;5052807;28;20060;-52
2022/12/21 04:55:53;;;;;;;55.63;21.80;;;9.40;99.90;;;;;;5053014;28;20068;-52
2022/12/21 04:58:18;;;;;;;64.43;22.70;;;9.40;99.90;;;;;;5052421;28;20448;-54
2022/12/21 05:00:44;;;;;;;65.90;22.83;;;9.40;99.90;;;;;;5052636;28;20104;-53
2022/12/21 05:03:10;;;;;;;70.47;22.27;;;9.40;99.90;;;;;;5052658;28;20025;-54
2022/12/21 05:05:35;;;;;;;68.57;22.63;;;9.40;99.90;;;;;;5052735;28;20021;-54
2022/12/21 05:08:01;;;;;;;56.37;21.60;;;9.40;99.90;;;;;;5052368;28;20096;-54
2022/12/21 05:10:27;;;;;;;72.17;19.83;;;9.30;99.90;;;;;;5052493;28;20064;-55
2022/12/21 05:12:53;;;;;;;54.60;20.00;;;9.30;99.90;;;;;;5052428;28;20025;-53
2022/12/21 05:15:19;;;;;;;61.27;19.07;;;9.30;99.90;;;;;;5052481;28;20433;-53
2022/12/21 05:17:44;;;;;;;53.77;18.37;;;9.30;99.90;;;;;;5051803;28;20033;-55
2022/12/21 05:20:10;;;;;;;50.47;18.10;;;9.30;99.90;;;;;;5052242;28;20028;-53
2022/12/21 05:22:36;;;;;;;49.27;17.00;;;9.30;99.90;;;;;;5052294;28;20025;-55
2022/12/21 05:25:02;;;;;;;51.90;17.80;;;9.30;99.90;;;;;;5052685;28;20512;-54
2022/12/21 05:27:28;;;;;;;51.33;18.57;;;9.30;99.90;;;;;;5051870;28;20555;-52
2022/12/21 05:29:53;;;;;;;48.73;18.57;;;9.30;99.90;;;;;;5052013;28;20064;-51
2022/12/21 05:32:19;;;;;;;50.60;17.70;;;9.30;99.90;;;;;;5052190;28;20094;-53
2022/12/21 05:34:45;;;;;;;57.97;19.33;;;9.30;99.90;;;;;;5052657;28;20035;-51
2022/12/21 05:37:11;;;;;;;52.23;17.93;;;9.30;99.90;;;;;;5051853;28;20512;-54
2022/12/21 05:39:36;;;;;;;58.97;18.17;;;9.20;99.90;;;;;;5051614;28;20033;-55
2022/12/21 05:42:03;;;;;;;56.20;17.93;;;9.30;99.90;;;;;;5051922;28;20024;-53
2022/12/21 05:44:29;;;;;;;65.20;19.83;;;9.30;99.90;;;;;;5052194;28;20047;-52
2022/12/21 05:46:55;;;;;;;65.50;19.03;;;9.30;99.90;;;;;;5051758;28;20070;-54
2022/12/21 05:49:21;;;;;;;71.00;22.63;;;9.30;99.90;;;;;;5051483;28;20412;-53
2022/12/21 05:51:48;;;;;;;66.13;21.70;;;9.20;99.90;;;;;;5051647;28;20078;-51
2022/12/21 05:54:15;;;;;;;60.27;21.40;;;9.20;99.90;;;;;;5051688;28;20025;-54
2022/12/21 05:56:41;;;;;;;57.80;20.53;;;9.00;99.90;;;;;;5051412;28;20025;-51
2022/12/21 05:59:06;;;;;;;68.20;21.67;;;8.90;99.90;;;;;;5051344;28;20474;-53
2022/12/21 06:01:32;;;;;;;66.20;22.43;;;8.90;99.90;;;;;;5051600;28;20025;-53
2022/12/21 06:03:58;;;;;;;58.90;21.47;;;8.90;99.90;;;;;;5051718;28;20104;-55
2022/12/21 06:06:24;;;;;;;70.53;22.10;;;8.80;99.90;;;;;;5051105;28;20546;-54
2022/12/21 06:08:50;;;;;;;67.03;22.50;;;8.80;99.90;;;;;;5051136;28;20512;-55
2022/12/21 06:11:21;;;;;;;70.33;21.43;;;8.80;99.90;;;;;;5051185;28;20513;-52
2022/12/21 06:13:47;;;;;;;67.23;21.77;;;8.70;99.90;;;;;;5051407;28;20409;-53
2022/12/21 06:16:16;;;;;;;56.00;18.60;;;8.70;99.90;;;;;;5050023;28;20438;-54
2022/12/21 06:18:42;;;;;;;51.20;17.50;;;8.60;99.90;;;;;;5049497;28;20039;-54
2022/12/21 06:21:09;;;;;;;55.03;17.57;;;8.60;99.90;;;;;;5049936;28;20078;-51
2022/12/21 06:23:36;;;;;;;60.20;19.23;;;8.60;99.90;;;;;;5051226;28;20120;-53
2022/12/21 06:26:03;;;;;;;53.87;18.87;;;8.60;99.90;;;;;;5051132;28;20033;-52
2022/12/21 06:28:29;;;;;;;57.70;19.33;;;8.60;99.90;;;;;;5049965;28;20401;-55
2022/12/21 06:31:02;;;;;;;66.00;19.17;;;8.50;99.90;;;;;;5051053;28;20029;-53
2022/12/21 06:33:27;;;;;;;63.23;19.67;;;8.50;99.90;;;;;;5050902;28;20425;-53
2022/12/21 06:35:57;;;;;;;73.90;19.60;;;8.50;99.90;;;;;;5051072;28;20056;-53
2022/12/21 06:38:24;;;;;;;65.67;20.43;;;8.50;99.90;;;;;;5050223;28;20051;-54
2022/12/21 06:41:01;;;;;;;57.97;19.20;;;8.60;99.90;;;;;;5050776;28;20033;-50
2022/12/21 06:43:28;;;;;;;68.27;20.63;;;8.60;99.90;;;;;;5050838;28;20028;-53
2022/12/21 06:45:56;;;;;;;71.97;21.43;;;8.60;99.90;;;;;;5050728;28;20025;-50
2022/12/21 06:48:22;;;;;;;64.80;22.07;;;8.70;99.90;;;;;;5050386;28;20041;-51
2022/12/21 06:50:56;;;;;;;65.17;20.90;;;8.70;99.90;;;;;;5050508;28;20033;-54
2022/12/21 06:53:24;;;;;;;66.93;21.43;;;8.60;99.90;;;;;;5050704;28;20115;-54
2022/12/21 06:55:56;;;;;;;62.97;21.47;;;8.60;99.90;;;;;;5050584;28;20033;-51
2022/12/21 06:58:22;;;;;;;65.10;21.70;;;8.60;99.90;;;;;;5050083;28;20104;-50
2022/12/21 07:00:49;;;;;;;76.90;23.00;;;8.60;99.90;;;;;;5050334;28;20457;-55
2022/12/21 07:03:14;;;;;;;66.27;21.40;;;8.60;99.90;;;;;;5050545;28;20064;-54
2022/12/21 07:05:40;;;;;;;66.90;22.97;;;8.60;99.90;;;;;;5050540;28;20098;-55
2022/12/21 07:08:06;;;;;;;75.20;21.90;;;8.70;99.90;;;;;;5050376;28;20247;-53
2022/12/21 07:10:32;;;;;;;68.87;20.37;;;8.60;99.90;;;;;;5050223;28;20494;-53
2022/12/21 07:12:58;;;;;;;67.00;21.50;;;8.60;99.90;;;;;;5050289;28;20086;-53
2022/12/21 07:15:23;;;;;;;70.40;21.93;;;8.60;99.90;;;;;;5050369;28;20482;-51
2022/12/21 07:17:49;;;;;;;74.40;22.20;;;8.60;99.90;;;;;;5050073;28;20155;-52
2022/12/21 07:20:15;;;;;;;70.07;22.77;;;8.60;99.90;;;;;;5050190;28;20124;-54
2022/12/21 07:22:40;;;;;;;73.10;21.57;;;8.60;99.90;;;;;;5050376;28;20072;-55
2022/12/21 07:25:06;;;;;;;73.23;22.00;;;8.70;99.90;;;;;;5050368;28;20033;-50
2022/12/21 07:27:32;;;;;;;71.53;21.43;;;8.70;99.90;;;;;;5049910;28;20059;-53
2022/12/21 07:29:58;;;;;;;69.10;22.53;;;8.70;99.90;;;;;;5050078;28;20117;-53
2022/12/21 07:32:23;;;;;;;77.13;22.50;;;8.70;99.90;;;;;;5050280;28;20036;-53
2022/12/21 07:34:49;;;;;;;86.17;22.73;;;8.60;99.90;;;;;;5050191;28;20029;-53
2022/12/21 07:37:15;;;;;;;68.03;19.93;;;8.60;99.90;;;;;;5049844;28;20025;-53
2022/12/21 07:39:40;;;;;;;60.13;19.13;;;8.60;99.90;;;;;;5050424;28;20504;-53
2022/12/21 07:42:06;;;;;;;66.80;20.43;;;8.50;99.90;;;;;;5054030;28;20025;-52
2022/12/21 07:44:33;;;;;;;61.10;19.03;;;8.50;99.90;;;;;;5052777;28;20058;-54
2022/12/21 07:47:19;;;;;;;61.30;17.37;;;8.50;99.90;;;;;;5052550;28;20580;-52
2022/12/21 07:49:45;;;;;;;57.27;17.17;;;8.50;99.90;;;;;;5053786;28;20119;-53
2022/12/21 07:52:10;;;;;;;61.37;17.23;;;8.50;99.90;;;;;;5053922;28;20029;-55
2022/12/21 07:54:36;;;;;;;64.07;18.33;;;8.50;99.90;;;;;;5053926;28;20498;-50
2022/12/21 07:57:02;;;;;;;64.60;17.60;;;8.50;99.90;;;;;;5053819;28;20025;-54
2022/12/21 07:59:27;;;;;;;63.00;18.50;;;8.50;99.90;;;;;;5053505;28;20120;-54
2022/12/21 08:01:55;;;;;;;72.43;20.33;;;8.60;99.90;;;;;;5053915;28;20028;-54
2022/12/21 08:04:20;;;;;;;72.37;19.40;;;8.60;99.90;;;;;;5053931;28;20412;-51
2022/12/21 08:06:46;;;;;;;57.57;19.00;;;8.60;99.90;;;;;;5053640;28;20116;-55
2022/12/21 08:09:12;;;;;;;66.77;19.40;;;8.60;99.90;;;;;;5053438;28;20025;-54
2022/12/21 08:11:37;;;;;;;70.77;21.30;;;8.50;99.90;;;;;;5053612;28;20454;-54
2022/12/21 08:14:03;;;;;;;76.00;21.33;;;8.50;99.90;;;;;;5053836;28;20046;-55
2022/12/21 08:16:29;;;;;;;67.47;20.83;;;8.50;99.90;;;;;;5053508;28;20045;-55
2022/12/21 08:18:55;;;;;;;72.70;20.07;;;8.50;99.90;;;;;;5053322;28;20029;-53
2022/12/21 08:21:21;;;;;;;71.93;21.07;;;8.50;99.90;;;;;;5053343;28;20124;-54
2022/12/21 08:23:48;;;;;;;74.13;21.17;;;8.50;99.90;;;;;;5053375;28;20112;-51
2022/12/21 08:26:14;;;;;;;63.83;21.07;;;8.50;99.90;;;;;;5053483;28;20091;-53
2022/12/21 08:28:41;;;;;;;62.73;19.93;;;8.50;99.90;;;;;;5052892;28;20037;-52
2022/12/21 08:31:15;;;;;;;76.57;22.63;;;8.60;99.90;;;;;;5053267;28;20032;-55
2022/12/21 08:33:42;;;;;;;62.30;19.63;;;8.60;99.90;;;;;;5053234;28;20021;-53
2022/12/21 08:36:10;;;;;;;59.30;18.17;;;8.60;99.90;;;;;;5053129;28;20051;-53
2022/12/21 08:38:36;;;;;;;62.50;18.93;;;8.60;99.90;;;;;;5065213;22;20502;-48
2022/12/21 08:41:02;;;;;;;54.37;18.03;;;8.60;99.90;;;;;;5053112;28;20021;-49
2022/12/21 08:43:28;;;;;;;66.17;18.47;;;8.60;99.90;;;;;;5053218;28;20029;-53
2022/12/21 08:45:53;;;;;;;56.33;17.73;;;8.60;99.90;;;;;;5053219;28;20029;-52
2022/12/21 08:48:19;;;;;;;51.67;17.03;;;8.60;99.90;;;;;;5052751;28;20112;-49
2022/12/21 08:50:51;;;;;;;49.97;16.50;;;8.60;99.90;;;;;;5052543;28;20107;-50
2022/12/21 08:53:17;;;;;;;51.77;15.50;;;8.60;99.90;;;;;;5052239;28;20115;-51
2022/12/21 08:55:43;;;;;;;48.93;16.93;;;8.60;99.90;;;;;;5052637;28;20128;-51
2022/12/21 08:58:08;;;;;;;46.13;16.03;;;8.60;99.90;;;;;;5052682;28;20024;-52
2022/12/21 09:00:34;;;;;;;48.53;16.40;;;8.60;99.90;;;;;;5052503;28;20083;-53
2022/12/21 09:03:00;;;;;;;50.73;16.50;;;8.60;99.90;;;;;;5052624;28;20029;-51
2022/12/21 09:05:26;;;;;;;49.60;16.90;;;8.60;99.90;;;;;;5053145;28;20489;-52
2022/12/21 09:07:51;;;;;;;51.97;16.97;;;8.60;99.90;;;;;;5052398;28;20067;-52
2022/12/21 09:10:17;;;;;;;52.00;17.60;;;8.60;99.90;;;;;;5052287;28;20048;-53
2022/12/21 09:12:43;;;;;;;55.57;16.83;;;8.60;99.90;;;;;;5052526;28;20029;-53
2022/12/21 09:15:09;;;;;;;51.20;16.60;;;8.60;99.90;;;;;;5052488;28;20406;-48
2022/12/21 09:17:35;;;;;;;43.07;16.57;;;8.60;99.90;;;;;;5052051;28;20033;-53
2022/12/21 09:20:01;;;;;;;51.20;16.70;;;8.60;99.90;;;;;;5051959;28;20043;-48
2022/12/21 09:22:26;;;;;;;43.80;16.57;;;8.60;99.90;;;;;;5052290;28;20032;-53
2022/12/21 09:24:52;;;;;;;46.63;17.10;;;8.60;99.90;;;;;;5052270;28;20027;-53
2022/12/21 09:27:18;;;;;;;45.17;16.43;;;8.60;99.90;;;;;;5052152;28;20433;-52
2022/12/21 09:29:44;;;;;;;51.23;16.03;;;8.50;99.90;;;;;;5051936;28;20065;-50
2022/12/21 09:32:10;;;;;;;48.20;16.33;;;8.60;99.90;;;;;;5051107;28;20426;-52
2022/12/21 09:34:36;;;;;;;46.10;15.83;;;8.70;99.90;;;;;;5051957;28;20064;-52
2022/12/21 09:37:01;;;;;;;43.67;15.57;;;8.70;99.90;;;;;;5051793;28;20405;-52
2022/12/21 09:39:27;;;;;;;41.43;14.67;;;8.80;99.90;;;;;;5051565;28;20107;-53
2022/12/21 09:42:37;;;;;;;41.50;15.60;;;8.80;99.90;;;;;;5052093;28;20389;-52
2022/12/21 09:45:03;;;;;;;43.17;15.93;;;8.90;99.90;;;;;;5047044;28;20489;-51
2022/12/21 09:47:55;;;;;;;53.90;17.27;;;8.90;99.90;;;;;;5051546;28;20037;-51
2022/12/21 09:50:27;;;;;;;46.47;17.00;;;8.90;99.90;;;;;;5051557;28;20052;-53
2022/12/21 09:53:26;;;;;;;46.47;19.10;;;8.90;99.90;;;;;;5051783;28;20035;-52
2022/12/21 09:55:54;;;;;;;45.08;18.65;;;8.90;99.90;;;;;;5051796;28;20039;-52
2022/12/21 09:58:33;;;;;;;49.03;17.97;;;8.90;99.90;;;;;;5051339;28;20390;-52
2022/12/21 10:01:08;;;;;;;44.45;18.48;;;8.80;99.90;;;;;;5051723;28;20063;-50
2022/12/21 10:03:50;;;;;;;44.67;17.83;;;8.80;99.90;;;;;;5050612;28;20033;-52
2022/12/21 10:06:30;;;;;;;42.20;17.77;;;8.90;99.90;;;;;;5051460;28;20473;-49
2022/12/21 10:09:07;;;;;;;48.23;18.27;;;9.00;99.90;;;;;;5051252;28;20029;-52
2022/12/21 10:11:56;;;;;;;35.03;17.47;;;9.20;99.90;;;;;;5051400;28;20039;-52
2022/12/21 10:14:39;;;;;;;41.08;18.25;;;9.30;99.90;;;;;;5051501;28;20040;-48
2022/12/21 10:17:20;;;;;;;40.13;17.57;;;9.40;99.90;;;;;;5051073;28;20037;-52
2022/12/21 10:20:01;;;;;;;38.90;18.87;;;9.40;99.90;;;;;;5050917;28;20025;-52
2022/12/21 10:22:42;;;;;;;40.50;19.13;;;9.40;99.90;;;;;;5050940;28;20033;-49
2022/12/21 10:25:23;;;;;;;38.33;18.97;;;9.30;99.90;;;;;;5051169;28;20033;-52
2022/12/21 10:27:56;;;;;;;40.90;18.63;;;9.20;99.90;;;;;;5050787;28;20087;-51
2022/12/21 10:30:22;;;;;;;42.00;17.47;;;9.30;99.90;;;;;;5050816;28;20103;-51
2022/12/21 10:32:49;;;;;;;44.10;18.23;;;9.30;99.90;;;;;;5050991;28;20137;-51
2022/12/21 10:35:32;;;;;;;35.03;16.67;;;9.20;99.90;;;;;;5051006;28;20033;-51
2022/12/21 10:37:59;;;;;;;35.00;15.53;;;9.20;99.90;;;;;;5050497;28;20033;-49
2022/12/21 10:40:29;;;;;;;34.30;14.17;;;9.10;99.90;;;;;;5050806;28;20025;-50
2022/12/21 10:42:55;;;;;;;35.23;13.97;;;9.10;99.90;;;;;;5050894;28;20021;-50
2022/12/21 10:45:23;;;;;;;30.23;12.97;;;9.00;99.90;;;;;;5050802;28;20101;-51
2022/12/21 10:47:49;;;;;;;26.20;12.13;;;9.00;99.90;;;;;;5050602;28;20409;-50
2022/12/21 10:50:23;;;;;;;22.87;9.73;;;9.00;99.90;;;;;;5049343;28;20044;-50
2022/12/21 10:52:54;;;;;;;23.63;10.90;;;9.00;99.90;;;;;;5050862;28;20040;-51
2022/12/21 10:55:25;;;;;;;23.23;9.97;;;9.00;99.90;;;;;;5050765;28;20030;-52
2022/12/21 10:58:12;;;;;;;20.77;9.17;;;9.00;99.90;;;;;;5050737;28;20037;-50
2022/12/21 11:00:40;;;;;;;18.10;8.17;;;9.10;99.90;;;;;;5050491;28;20158;-50
2022/12/21 11:03:36;;;;;;;16.93;8.47;;;9.20;99.90;;;;;;5050569;28;20032;-50
2022/12/21 11:06:13;;;;;;;22.43;9.80;;;9.20;99.90;;;;;;5050618;28;20060;-51
2022/12/21 11:08:51;;;;;;;24.20;8.83;;;9.30;99.90;;;;;;5050076;28;20500;-50
2022/12/21 11:11:35;;;;;;;18.80;9.20;;;9.30;99.90;;;;;;5050548;28;20090;-49
2022/12/21 11:14:12;;;;;;;22.67;9.13;;;9.40;99.90;;;;;;5050552;28;20531;-51
2022/12/21 11:16:38;;;;;;;20.50;8.87;;;9.40;99.90;;;;;;5050205;28;20033;-49
2022/12/21 11:19:10;;;;;;;17.03;7.73;;;9.40;99.90;;;;;;5050283;28;20063;-52
2022/12/21 11:21:47;;;;;;;18.17;7.37;;;9.40;99.90;;;;;;5050684;28;20430;-52
2022/12/21 11:24:22;;;;;;;18.03;6.37;;;9.40;99.90;;;;;;5050505;28;20032;-50
2022/12/21 11:27:14;;;;;;;18.80;6.97;;;9.40;99.90;;;;;;5050167;28;20025;-47
2022/12/21 11:30:07;;;;;;;16.50;6.90;;;9.50;99.90;;;;;;5041778;28;20082;-46
2022/12/21 11:32:34;;;;;;;18.40;7.17;;;9.40;99.90;;;;;;5050302;28;20417;-52
2022/12/21 11:35:05;;;;;;;15.37;6.57;;;9.40;99.90;;;;;;5050328;28;20079;-52
2022/12/21 11:37:36;;;;;;;21.10;8.33;;;9.40;99.90;;;;;;5049971;28;20091;-48
2022/12/21 11:40:11;;;;;;;21.20;8.33;;;9.40;99.90;;;;;;5049935;28;20028;-51
2022/12/21 11:42:59;;;;;;;29.77;14.67;;;9.30;99.90;;;;;;5050200;28;20082;-51
2022/12/21 11:45:50;;;;;;;33.10;16.33;;;9.30;99.90;;;;;;5043604;28;20077;-49
2022/12/21 11:48:47;;;;;;;20.73;9.30;;;9.30;99.90;;;;;;5049958;28;20031;-54
2022/12/21 11:51:27;;;;;;;28.07;10.30;;;9.30;99.90;;;;;;5050097;28;20491;-49
2022/12/21 11:54:02;;;;;;;25.80;9.10;;;9.30;99.90;;;;;;5050138;28;20028;-47
2022/12/21 11:56:34;;;;;;;27.37;11.47;;;9.30;99.90;;;;;;5050130;28;20095;-52
2022/12/21 11:59:23;;;;;;;24.17;10.93;;;9.30;99.90;;;;;;5049701;28;20047;-48
2022/12/21 12:02:20;;;;;;;23.40;9.70;;;9.30;99.90;;;;;;5050307;28;20167;-50
2022/12/21 12:05:26;;;;;;;23.77;10.77;;;9.30;99.90;;;;;;5050184;28;20037;-49
2022/12/21 12:08:07;;;;;;;25.00;12.00;;;9.30;99.90;;;;;;5049728;28;20040;-50
2022/12/21 12:10:42;;;;;;;24.27;10.30;;;9.40;99.90;;;;;;5049637;28;20037;-50
2022/12/21 12:13:37;;;;;;;22.90;9.67;;;9.40;99.90;;;;;;5050098;28;20068;-47
2022/12/21 12:16:27;;;;;;;21.73;8.47;;;9.40;99.90;;;;;;5026202;28;20049;-50
2022/12/21 12:19:14;;;;;;;18.17;8.20;;;9.40;99.90;;;;;;5049520;28;20040;-46
2022/12/21 12:22:11;;;;;;;18.60;8.57;;;9.30;99.90;;;;;;5050160;28;20025;-48
2022/12/21 12:24:58;;;;;;;19.53;9.40;;;9.30;99.90;;;;;;5049790;28;20354;-48
2022/12/21 12:27:41;;;;;;;21.20;8.67;;;9.30;99.90;;;;;;5051128;28;20025;-50
2022/12/21 12:30:06;;;;;;;23.40;10.20;;;9.40;99.90;;;;;;5053208;28;20033;-50
2022/12/21 12:32:50;;;;;;;26.87;10.70;;;9.40;99.90;;;;;;5053490;28;20036;-50
2022/12/21 12:35:41;;;;;;;22.77;11.37;;;9.40;99.90;;;;;;5053257;28;20458;-48
2022/12/21 12:38:28;;;;;;;24.30;10.80;;;9.40;99.90;;;;;;5052894;28;20057;-48
2022/12/21 12:41:31;;;;;;;25.97;10.93;;;9.40;99.90;;;;;;5053157;28;20104;-51
2022/12/21 12:44:03;;;;;;;26.90;10.03;;;9.30;99.90;;;;;;5053061;28;20485;-53
2022/12/21 12:47:04;;;;;;;19.97;9.20;;;9.20;99.90;;;;;;5052900;28;20462;-49
2022/12/21 12:49:47;;;;;;;19.53;8.57;;;9.30;99.90;;;;;;5052712;28;20493;-51
2022/12/21 12:52:18;;;;;;;16.67;8.23;;;9.30;99.90;;;;;;5052963;28;20028;-52
2022/12/21 12:54:56;;;;;;;22.17;8.47;;;9.40;99.90;;;;;;5053004;28;20025;-51
2022/12/21 12:57:37;;;;;;;18.83;7.00;;;9.40;99.90;;;;;;5052607;28;20503;-52
2022/12/21 13:00:09;;;;;;;19.67;6.70;;;9.40;99.90;;;;;;5052634;28;20028;-53
2022/12/21 13:02:56;;;;;;;18.50;6.20;;;9.30;99.90;;;;;;5052888;28;20045;-51
2022/12/21 13:05:46;;;;;;;13.27;5.43;;;9.40;99.90;;;;;;5053022;28;20036;-54
2022/12/21 13:08:35;;;;;;;17.80;5.87;;;9.40;99.90;;;;;;5052573;28;20037;-54
2022/12/21 13:11:20;;;;;;;20.37;5.13;;;9.40;99.90;;;;;;5052528;28;20032;-50
2022/12/21 13:14:01;;;;;;;16.20;5.00;;;9.40;99.90;;;;;;5052685;28;20040;-54
2022/12/21 13:16:44;;;;;;;13.10;4.00;;;9.40;99.90;;;;;;5052782;28;20049;-51
2022/12/21 13:19:17;;;;;;;16.93;4.33;;;9.40;99.90;;;;;;5034329;28;20036;-52